Peoria, Texas
Current Conditions -  °F | °C
As of 4:55 PM on Wednesday 22 Oct 2014 (Local Time) from KINJ Reporting Station
Broken Clouds Broken Clouds  
Wind Chill: 81°   Ceiling: 5000
Heat Index: 81°   Visibility: 10mi
Dew Point: 56°   Wind: 7mph
Humidity: 42%   Direction: 60°ENE
Pressure: 30.07"   Gusts: NA
Location:  32.0499°N, 97.1039°W
Report Text: KINJ 222155Z AUTO 06006KT 10SM BKN050 BKN060 27/13 A3007 RMK AO2 T02720131
Loading
Personal Weather Stations






























Interactive Weather Map
Tropical Storm Tracking
New forecast layout! Learn more

10-Day Weather Forecast

Advertisements
Track Severe Weather on mobile